Time;durP1;ratioP1;P1;durP2;ratioP2;P2;SDS_P1;SDS_P2;PMS_P1;PMS_P2;Temp;Humidity;BMP_temperature;BMP_pressure;BME280_temperature;BME280_humidity;BME280_pressure;Samples;Min_cycle;Max_cycle;Signal;HPM_P1;HPM_P2
2021/04/15 00:00:35;;;;;;;48.83;22.27;;;;;;;16.35;25.37;99711.47;4974435;28;20038;-67
2021/04/15 00:03:04;;;;;;;48.03;22.45;;;;;;;16.37;25.38;99714.84;4990747;28;20136;-68
2021/04/15 00:05:31;;;;;;;51.05;22.50;;;;;;;16.37;25.05;99722.94;4987173;28;20069;-68
2021/04/15 00:07:57;;;;;;;45.95;22.50;;;;;;;16.23;25.79;99710.09;4985193;28;20038;-70
2021/04/15 00:10:31;;;;;;;48.83;21.75;;;;;;;16.28;25.71;99729.34;4987502;28;20554;-66
2021/04/15 00:12:57;;;;;;;47.33;21.95;;;;;;;16.11;25.97;99713.06;4991988;28;20449;-69
2021/04/15 00:15:23;;;;;;;47.17;21.50;;;;;;;16.10;25.96;99710.53;4991160;28;20085;-69
2021/04/15 00:17:49;;;;;;;40.13;20.85;;;;;;;16.16;26.04;99721.53;4983679;28;20045;-64
2021/04/15 00:20:15;;;;;;;46.25;21.85;;;;;;;16.08;25.90;99705.28;4992049;28;20030;-67
2021/04/15 00:22:40;;;;;;;43.22;21.35;;;;;;;16.16;25.96;99716.16;4991445;28;20064;-68
2021/04/15 00:25:07;;;;;;;45.88;22.42;;;;;;;16.13;25.94;99711.03;4990807;28;20030;-65
2021/04/15 00:27:32;;;;;;;48.72;21.83;;;;;;;16.19;26.07;99720.34;4984431;28;20049;-68
2021/04/15 00:29:58;;;;;;;45.75;21.85;;;;;;;16.16;26.37;99707.19;4991092;28;20026;-67
2021/04/15 00:32:23;;;;;;;55.55;22.05;;;;;;;16.24;26.16;99722.56;4989164;28;20058;-68
2021/04/15 00:34:49;;;;;;;45.53;21.73;;;;;;;16.30;26.00;99711.09;4991407;28;20100;-60
2021/04/15 00:37:14;;;;;;;44.22;23.02;;;;;;;16.05;25.68;99660.56;4986650;28;20490;-67
2021/04/15 00:39:40;;;;;;;46.13;21.85;;;;;;;16.38;25.86;99713.81;4982205;28;20074;-69
2021/04/15 00:42:06;;;;;;;45.90;22.55;;;;;;;16.41;25.62;99704.56;4977630;28;20042;-69
2021/04/15 00:44:32;;;;;;;39.17;21.65;;;;;;;16.07;26.02;99652.28;4988956;28;20042;-69
2021/04/15 00:47:04;;;;;;;50.10;21.80;;;;;;;16.07;26.13;99658.56;4988485;28;20034;-68
2021/04/15 00:49:35;;;;;;;47.97;22.52;;;;;;;16.42;25.79;99715.22;4963745;28;20434;-65
2021/04/15 00:52:06;;;;;;;50.38;22.38;;;;;;;16.42;25.74;99708.94;4984934;28;20042;-66
2021/04/15 00:54:40;;;;;;;49.80;21.92;;;;;;;16.48;25.87;99708.28;4986188;28;20145;-66
2021/04/15 00:57:11;;;;;;;49.38;21.90;;;;;;;16.42;25.64;99709.81;4984447;28;20042;-67
2021/04/15 00:59:38;;;;;;;48.10;22.23;;;;;;;16.44;25.77;99712.31;4989303;28;20508;-68
2021/04/15 01:02:05;;;;;;;39.78;22.25;;;;;;;16.42;25.87;99711.66;4990812;28;20101;-67
2021/04/15 01:04:30;;;;;;;40.80;22.75;;;;;;;16.41;26.18;99718.06;4989428;28;20034;-68
2021/04/15 01:06:56;;;;;;;46.70;21.92;;;;;;;16.39;26.39;99715.50;4987346;28;20042;-66
2021/04/15 01:09:22;;;;;;;46.40;22.23;;;;;;;16.37;26.20;99722.94;4978250;28;20415;-67
2021/04/15 01:12:26;;;;;;;50.17;22.25;;;;;;;16.43;26.24;99714.19;4983296;28;20132;-68
2021/04/15 01:15:11;;;;;;;49.55;21.90;;;;;;;16.38;26.29;99719.22;4980789;28;20034;-67
2021/04/15 01:17:58;;;;;;;43.88;21.70;;;;;;;16.39;26.64;99714.69;4990525;28;20066;-66
2021/04/15 01:20:23;;;;;;;49.60;22.15;;;;;;;16.32;26.60;99712.66;4985904;28;20502;-65
2021/04/15 01:23:05;;;;;;;42.28;21.90;;;;;;;16.32;26.91;99715.34;4990876;28;20041;-58
2021/04/15 01:25:34;;;;;;;45.63;21.83;;;;;;;16.21;27.12;99712.94;4989469;28;20050;-61
2021/04/15 01:28:02;;;;;;;55.30;22.38;;;;;;;16.16;27.60;99721.53;4985933;28;20078;-64
2021/04/15 01:30:35;;;;;;;45.85;22.73;;;;;;;15.62;27.40;99644.31;4984040;28;20049;-68
2021/04/15 01:33:08;;;;;;;48.63;21.50;;;;;;;16.05;27.33;99721.81;4986221;28;20065;-68
2021/04/15 01:35:44;;;;;;;58.60;22.75;;;;;;;16.06;27.68;99723.50;4990341;28;20049;-68
2021/04/15 01:38:12;;;;;;;50.78;22.45;;;;;;;16.01;28.12;99717.75;4989504;28;20038;-67
2021/04/15 01:40:43;;;;;;;49.58;22.67;;;;;;;15.45;28.32;99642.56;4989442;28;20529;-69
2021/04/15 01:43:13;;;;;;;46.97;22.02;;;;;;;15.89;28.08;99719.91;4976549;28;20096;-67
2021/04/15 01:45:39;;;;;;;50.78;22.52;;;;;;;15.86;28.49;99723.72;4989996;28;20041;-68
2021/04/15 01:48:10;;;;;;;52.30;22.88;;;;;;;15.83;28.63;99720.53;4980504;28;20182;-59
2021/04/15 01:50:39;;;;;;;54.17;23.27;;;;;;;15.83;28.35;99721.34;4988276;28;20097;-69
2021/04/15 01:53:14;;;;;;;48.97;23.83;;;;;;;15.47;28.46;99667.53;4988741;28;20026;-66
2021/04/15 01:55:52;;;;;;;44.90;21.83;;;;;;;15.74;28.39;99706.13;4986090;28;20102;-69
2021/04/15 01:58:42;;;;;;;45.03;22.50;;;;;;;15.77;28.37;99716.59;4986469;28;20297;-69
2021/04/15 02:01:13;;;;;;;44.05;20.15;;;;;;;15.65;28.30;99718.72;4977154;28;20117;-67
2021/04/15 02:03:41;;;;;;;47.47;20.63;;;;;;;15.53;28.00;99712.75;4971362;28;20042;-68
2021/04/15 02:06:16;;;;;;;50.15;20.33;;;;;;;15.39;28.22;99703.38;4990408;28;20038;-66
2021/04/15 02:08:46;;;;;;;51.90;20.92;;;;;;;15.48;28.16;99724.00;4988961;28;20034;-69
2021/04/15 02:11:25;;;;;;;52.25;19.98;;;;;;;14.98;28.62;99636.53;4989003;28;20510;-68
2021/04/15 02:13:54;;;;;;;60.25;20.80;;;;;;;15.35;28.62;99712.81;4989343;28;20046;-67
2021/04/15 02:16:25;;;;;;;50.25;19.88;;;;;;;15.31;28.71;99708.72;4990682;28;20066;-67
2021/04/15 02:18:52;;;;;;;45.40;19.85;;;;;;;15.22;28.73;99705.13;4984286;28;20457;-62
2021/04/15 02:21:52;;;;;;;47.33;20.23;;;;;;;15.19;28.95;99702.72;4969846;28;20401;-67
2021/04/15 02:24:37;;;;;;;44.53;21.02;;;;;;;15.02;28.99;99694.53;4960966;28;20062;-67
2021/04/15 02:27:21;;;;;;;51.28;20.95;;;;;;;15.06;29.05;99712.06;4975552;28;20042;-65
2021/04/15 02:29:58;;;;;;;47.80;20.60;;;;;;;14.95;29.20;99712.34;4987895;28;20050;-67
2021/04/15 02:32:36;;;;;;;48.40;20.85;;;;;;;14.87;29.01;99721.19;4990032;28;20121;-65
2021/04/15 02:35:29;;;;;;;46.90;20.58;;;;;;;14.42;29.18;99655.53;4982409;28;20486;-67
2021/04/15 02:37:58;;;;;;;53.10;22.50;;;;;;;14.32;29.27;99658.31;4985561;28;20030;-66
2021/04/15 02:40:28;;;;;;;39.88;21.20;;;;;;;14.75;29.11;99746.66;4986919;28;20117;-64
2021/04/15 02:42:57;;;;;;;41.00;20.98;;;;;;;14.34;29.27;99674.31;4988818;28;20034;-67
2021/04/15 02:45:34;;;;;;;42.13;21.98;;;;;;;14.76;29.38;99741.13;4989224;28;20123;-66
2021/04/15 02:48:23;;;;;;;51.47;22.63;;;;;;;14.76;28.97;99729.50;4985965;28;20046;-66
2021/04/15 02:50:55;;;;;;;44.28;21.98;;;;;;;14.74;29.07;99740.44;4974076;28;20060;-69
2021/04/15 02:53:25;;;;;;;45.35;21.13;;;;;;;14.68;29.35;99721.31;4985720;28;20043;-68
2021/04/15 02:56:13;;;;;;;51.75;22.98;;;;;;;14.68;29.58;99732.91;4976257;28;20065;-68
2021/04/15 02:58:55;;;;;;;44.22;22.77;;;;;;;14.68;29.06;99719.44;4991920;28;20054;-68
2021/04/15 03:01:26;;;;;;;44.88;22.17;;;;;;;14.72;29.08;99731.66;4992018;28;20061;-69
2021/04/15 03:03:54;;;;;;;44.85;22.13;;;;;;;14.78;29.02;99727.50;4993039;28;20593;-60
2021/04/15 03:06:24;;;;;;;41.38;21.80;;;;;;;14.84;29.25;99721.50;4986231;28;20045;-67
2021/04/15 03:08:56;;;;;;;44.88;22.45;;;;;;;14.86;28.93;99718.63;4977448;28;20483;-69
2021/04/15 03:11:48;;;;;;;44.55;22.73;;;;;;;14.98;29.22;99733.59;4994134;28;20034;-68
2021/04/15 03:14:21;;;;;;;48.33;22.00;;;;;;;14.94;29.45;99726.78;4988475;28;20054;-68
2021/04/15 03:16:50;;;;;;;46.88;22.60;;;;;;;14.88;29.32;99722.88;4989619;28;20057;-69
2021/04/15 03:19:19;;;;;;;55.53;23.63;;;;;;;14.82;29.29;99718.09;4984928;28;20372;-69
2021/04/15 03:21:58;;;;;;;49.65;23.38;;;;;;;14.80;29.55;99721.94;4992601;28;20038;-69
2021/04/15 03:24:31;;;;;;;48.30;25.08;;;;;;;14.86;29.62;99718.63;4988451;28;20396;-60
2021/04/15 03:27:12;;;;;;;53.58;24.50;;;;;;;14.85;29.50;99720.50;4991443;28;20114;-66
2021/04/15 03:29:53;;;;;;;44.05;23.48;;;;;;;14.85;29.26;99728.59;4993052;28;20057;-69
2021/04/15 03:32:24;;;;;;;46.80;23.17;;;;;;;14.93;29.35;99728.66;4992132;28;20062;-68
2021/04/15 03:35:22;;;;;;;43.63;22.40;;;;;;;15.05;29.17;99740.03;4976802;28;20580;-67
2021/04/15 03:37:48;;;;;;;47.13;22.95;;;;;;;15.10;28.76;99725.25;4987761;28;20042;-68
2021/04/15 03:40:16;;;;;;;42.05;21.15;;;;;;;15.27;28.50;99745.94;4992244;28;20042;-69
2021/04/15 03:42:51;;;;;;;42.28;20.83;;;;;;;15.39;27.93;99741.16;4991880;28;20104;-69
2021/04/15 03:45:23;;;;;;;35.63;20.40;;;;;;;15.65;27.98;99754.63;4991822;28;20450;-63
2021/04/15 03:47:54;;;;;;;44.22;20.38;;;;;;;15.83;27.36;99726.75;4982365;28;20121;-71
2021/04/15 03:50:24;;;;;;;37.88;17.98;;;;;;;16.17;26.80;99750.25;4990650;28;20069;-69
2021/04/15 03:52:56;;;;;;;39.22;16.83;;;;;;;16.57;25.78;99753.25;4977842;28;20066;-69
2021/04/15 03:55:25;;;;;;;30.20;14.70;;;;;;;16.73;25.44;99735.34;4992713;28;20113;-66
2021/04/15 03:57:55;;;;;;;42.33;15.73;;;;;;;16.61;25.03;99676.22;4992321;28;20117;-67
2021/04/15 04:00:33;;;;;;;36.97;14.93;;;;;;;17.06;24.58;99668.66;4989932;28;20038;-69
2021/04/15 04:03:26;;;;;;;33.67;14.60;;;;;;;17.67;24.29;99731.50;4978390;28;20041;-68
2021/04/15 04:06:04;;;;;;;29.98;14.95;;;;;;;17.38;24.00;99685.03;4989926;28;20042;-69
2021/04/15 04:08:41;;;;;;;25.02;12.52;;;;;;;17.73;24.03;99739.78;4991832;28;20064;-68
2021/04/15 04:11:11;;;;;;;30.38;13.60;;;;;;;17.63;23.98;99739.97;4978239;28;20383;-70
2021/04/15 04:13:41;;;;;;;31.83;13.18;;;;;;;17.29;24.11;99695.00;4987010;28;20410;-69
2021/04/15 04:16:19;;;;;;;32.25;12.85;;;;;;;17.54;24.03;99745.56;4986212;28;20034;-68
2021/04/15 04:18:47;;;;;;;25.23;11.82;;;;;;;17.61;23.83;99757.38;4992130;28;20513;-69
2021/04/15 04:21:20;;;;;;;23.60;12.65;;;;;;;17.47;24.15;99742.69;4982688;28;20360;-70
2021/04/15 04:23:49;;;;;;;19.67;11.40;;;;;;;17.30;24.31;99729.16;4982118;28;20043;-67
2021/04/15 04:26:35;;;;;;;26.63;11.77;;;;;;;17.49;24.39;99743.38;4991479;28;20522;-68
2021/04/15 04:29:03;;;;;;;29.33;11.20;;;;;;;17.53;24.10;99738.47;4991227;28;20034;-67
2021/04/15 04:31:35;;;;;;;29.13;12.18;;;;;;;17.50;24.08;99728.81;4989470;28;20105;-66
2021/04/15 04:34:01;;;;;;;22.65;11.32;;;;;;;17.62;24.28;99754.53;4991329;28;20054;-65
2021/04/15 04:36:31;;;;;;;29.83;12.65;;;;;;;17.73;24.00;99761.44;4990244;28;20034;-62
2021/04/15 04:38:57;;;;;;;27.38;11.77;;;;;;;17.87;23.68;99764.44;4985682;28;20517;-60
2021/04/15 04:41:29;;;;;;;32.22;12.13;;;;;;;18.04;23.52;99757.13;4984788;28;20038;-67
2021/04/15 04:44:00;;;;;;;24.13;11.85;;;;;;;18.14;23.52;99751.53;4991095;28;20034;-68
2021/04/15 04:46:37;;;;;;;23.40;11.52;;;;;;;18.30;22.96;99759.59;4987353;28;20030;-67
2021/04/15 04:49:16;;;;;;;31.27;11.40;;;;;;;18.55;23.10;99761.31;4979524;28;20034;-68
2021/04/15 04:51:56;;;;;;;28.23;11.48;;;;;;;18.84;22.66;99751.69;4981465;28;20046;-66
2021/04/15 04:54:23;;;;;;;37.00;10.90;;;;;;;19.14;22.08;99752.66;4987704;28;20498;-67
2021/04/15 04:57:00;;;;;;;20.58;10.30;;;;;;;19.22;21.93;99754.47;4975008;28;20034;-67
2021/04/15 04:59:34;;;;;;;25.25;11.02;;;;;;;19.29;21.36;99757.31;4990887;28;20394;-64
2021/04/15 05:01:59;;;;;;;23.27;10.45;;;;;;;19.07;21.82;99744.41;4985909;28;20042;-67
2021/04/15 05:04:31;;;;;;;25.15;10.48;;;;;;;19.35;21.44;99753.84;4987893;28;20582;-66
2021/04/15 05:07:05;;;;;;;23.65;10.32;;;;;;;19.75;21.03;99753.63;4990752;28;20125;-60
2021/04/15 05:09:35;;;;;;;28.52;10.20;;;;;;;20.18;20.64;99759.31;4986274;28;20031;-65
2021/04/15 05:12:06;;;;;;;26.52;9.88;;;;;;;20.99;19.99;99740.38;4983137;28;20034;-66
2021/04/15 05:14:33;;;;;;;22.38;10.05;;;;;;;22.33;18.63;99754.13;4986992;28;20502;-66
2021/04/15 05:17:34;;;;;;;23.88;9.93;;;;;;;23.78;17.31;99746.59;4989912;28;20129;-68
2021/04/15 05:20:04;;;;;;;31.83;10.13;;;;;;;24.85;16.14;99741.84;4990038;28;20121;-68
2021/04/15 05:22:30;;;;;;;26.30;11.07;;;;;;;25.67;15.46;99737.44;4990083;28;20041;-70
2021/04/15 05:25:01;;;;;;;26.02;10.20;;;;;;;26.47;14.32;99739.28;4990397;28;20042;-69
2021/04/15 05:27:29;;;;;;;27.02;9.43;;;;;;;27.47;13.66;99755.34;4988330;28;20172;-63
2021/04/15 05:30:17;;;;;;;28.75;10.07;;;;;;;28.93;12.86;99754.66;4988275;28;20049;-70
2021/04/15 05:32:45;;;;;;;28.77;11.02;;;;;;;29.43;11.86;99696.25;4982736;28;20065;-69
2021/04/15 05:35:17;;;;;;;29.17;10.55;;;;;;;29.57;11.38;99719.59;4988651;28;20566;-68
2021/04/15 05:37:43;;;;;;;28.17;10.30;;;;;;;30.09;11.15;99742.44;4984746;28;20041;-70
2021/04/15 05:40:10;;;;;;;28.55;9.60;;;;;;;30.68;11.28;99742.88;4984097;28;20038;-68
2021/04/15 05:42:43;;;;;;;24.83;10.73;;;;;;;31.33;10.11;99740.19;4969370;28;20039;-69
2021/04/15 05:45:25;;;;;;;25.92;10.50;;;;;;;32.34;9.67;99739.44;4983930;28;20034;-68
2021/04/15 05:47:56;;;;;;;23.15;10.88;;;;;;;32.37;9.60;99744.44;4974681;28;20053;-68
2021/04/15 05:50:30;;;;;;;25.25;10.70;;;;;;;31.85;10.06;99748.88;4987942;28;20049;-64
2021/04/15 05:53:00;;;;;;;34.33;11.23;;;;;;;31.80;10.04;99746.91;4975639;28;20030;-68
2021/04/15 05:55:32;;;;;;;26.65;10.32;;;;;;;30.90;10.48;99751.13;4987848;28;20046;-67
2021/04/15 05:58:14;;;;;;;25.13;9.80;;;;;;;29.73;11.16;99770.31;4988959;28;20085;-66
2021/04/15 06:01:02;;;;;;;21.90;9.63;;;;;;;28.68;12.02;99779.75;4989691;28;20410;-69
2021/04/15 06:03:54;;;;;;;26.33;10.02;;;;;;;27.58;12.96;99767.47;4980809;28;20507;-72
2021/04/15 06:06:25;;;;;;;22.60;10.55;;;;;;;26.74;13.24;99749.88;4978059;28;20073;-70
2021/04/15 06:08:52;;;;;;;31.33;10.95;;;;;;;25.88;13.85;99745.22;4982127;28;20142;-68
2021/04/15 06:11:40;;;;;;;28.10;11.57;;;;;;;25.36;14.75;99765.50;4989775;28;20034;-69
2021/04/15 06:14:47;;;;;;;31.88;11.25;;;;;;;25.04;15.28;99770.97;4988747;28;20030;-68
2021/04/15 06:17:28;;;;;;;26.20;11.63;;;;;;;24.69;15.50;99759.56;4971715;28;20061;-68
2021/04/15 06:19:59;;;;;;;32.50;11.05;;;;;;;24.31;15.84;99770.28;4990164;28;20081;-64
2021/04/15 06:22:29;;;;;;;22.05;10.93;;;;;;;24.12;15.95;99779.38;4948930;28;20506;-67
2021/04/15 06:25:38;;;;;;;33.00;11.68;;;;;;;23.98;16.38;99732.88;4989787;28;20217;-65
2021/04/15 06:28:08;;;;;;;25.25;11.45;;;;;;;24.16;16.64;99776.00;4974689;28;20065;-65
2021/04/15 06:30:48;;;;;;;25.88;11.40;;;;;;;24.34;16.17;99758.03;4996184;28;20036;-68
2021/04/15 06:33:17;;;;;;;26.58;11.38;;;;;;;24.76;15.84;99776.84;5004721;28;20037;-65
2021/04/15 06:35:46;;;;;;;31.40;11.55;;;;;;;24.97;15.74;99766.63;4983834;28;20510;-70
2021/04/15 06:38:59;;;;;;;27.48;11.13;;;;;;;26.14;14.86;99770.69;4998365;28;20045;-66
2021/04/15 06:41:32;;;;;;;38.33;11.70;;;;;;;27.45;13.52;99753.91;4968049;28;20407;-68
2021/04/15 06:44:31;;;;;;;28.02;11.20;;;;;;;28.69;12.68;99767.66;5002114;28;20065;-69
2021/04/15 06:47:27;;;;;;;26.13;11.13;;;;;;;30.27;11.77;99776.34;4981010;28;20073;-62
2021/04/15 06:50:08;;;;;;;31.58;11.88;;;;;;;31.13;11.08;99777.59;4977017;28;20042;-70
2021/04/15 06:52:50;;;;;;;29.67;11.32;;;;;;;31.96;10.24;99777.44;4983294;28;20502;-66
2021/04/15 06:55:49;;;;;;;23.90;10.88;;;;;;;33.18;10.04;99780.13;4983715;28;20375;-68
2021/04/15 06:58:27;;;;;;;29.95;10.57;;;;;;;33.43;9.18;99776.56;4982898;28;20034;-64
2021/04/15 07:01:01;;;;;;;27.27;10.52;;;;;;;34.06;8.69;99777.31;4982278;28;20141;-65
2021/04/15 07:03:35;;;;;;;27.58;11.23;;;;;;;33.45;8.99;99779.03;4982814;28;20041;-65
2021/04/15 07:06:07;;;;;;;25.52;10.80;;;;;;;33.43;9.26;99784.03;4986706;28;20387;-67
2021/04/15 07:08:48;;;;;;;26.58;10.65;;;;;;;34.08;8.63;99769.53;4986583;28;20159;-68
2021/04/15 07:11:38;;;;;;;30.60;11.20;;;;;;;33.62;9.39;99779.59;4986613;28;20274;-69
2021/04/15 07:14:28;;;;;;;25.95;11.00;;;;;;;32.81;9.42;99781.97;4993947;28;20038;-75
2021/04/15 07:17:12;;;;;;;28.58;11.15;;;;;;;31.94;10.30;99774.94;4982389;28;20046;-69
2021/04/15 07:19:59;;;;;;;25.08;11.18;;;;;;;30.90;10.62;99778.78;4985620;28;20038;-67
2021/04/15 07:22:43;;;;;;;30.17;11.50;;;;;;;29.94;11.57;99778.91;4985151;28;20557;-62
2021/04/15 07:25:32;;;;;;;24.25;11.38;;;;;;;28.97;12.34;99776.19;4992376;28;20108;-59
2021/04/15 07:28:39;;;;;;;26.13;11.82;;;;;;;28.20;13.18;99766.13;4988735;28;20049;-62
2021/04/15 07:31:26;;;;;;;27.90;11.70;;;;;;;27.68;13.81;99777.03;4986639;28;20057;-62
2021/04/15 07:34:04;;;;;;;25.17;12.23;;;;;;;27.87;13.79;99808.84;4991380;28;20455;-61
2021/04/15 07:36:57;;;;;;;31.02;11.82;;;;;;;27.87;13.55;99792.34;4974162;28;20043;-60
2021/04/15 07:39:34;;;;;;;30.20;12.20;;;;;;;27.45;13.80;99812.50;4973510;28;20557;-61
2021/04/15 07:42:27;;;;;;;29.95;12.50;;;;;;;27.30;13.93;99804.69;4978209;28;20058;-61
2021/04/15 07:44:58;;;;;;;31.83;11.93;;;;;;;27.55;13.82;99817.44;4980912;28;20120;-62
2021/04/15 07:47:36;;;;;;;21.17;11.48;;;;;;;27.88;13.88;99784.94;4978888;28;20407;-62
2021/04/15 07:50:10;;;;;;;29.30;11.77;;;;;;;28.01;13.14;99775.59;4986231;28;20045;-63
2021/04/15 07:53:16;;;;;;;26.08;11.32;;;;;;;27.90;13.88;99785.53;4992324;28;20069;-62
2021/04/15 07:55:50;;;;;;;29.27;11.98;;;;;;;27.73;13.48;99779.91;4992244;28;20053;-62
2021/04/15 07:58:31;;;;;;;27.93;11.07;;;;;;;27.63;13.86;99786.84;4987827;28;20145;-63
2021/04/15 08:01:24;;;;;;;22.98;11.20;;;;;;;27.23;13.67;99779.22;4980544;28;20050;-62
2021/04/15 08:04:11;;;;;;;31.20;11.48;;;;;;;26.96;14.03;99776.88;4990607;28;20042;-63
2021/04/15 08:07:13;;;;;;;28.20;10.88;;;;;;;26.73;14.50;99777.59;4991888;28;20038;-62
2021/04/15 08:09:53;;;;;;;28.55;11.25;;;;;;;26.41;14.51;99780.56;4987288;28;20045;-60
2021/04/15 08:13:09;;;;;;;20.48;11.10;;;;;;;26.31;15.00;99792.06;4986842;28;20331;-62
2021/04/15 08:16:15;;;;;;;24.05;11.13;;;;;;;26.12;15.01;99781.06;4956020;28;20108;-61
2021/04/15 08:18:56;;;;;;;25.20;10.57;;;;;;;25.91;15.20;99760.38;4992386;28;20038;-61
2021/04/15 08:21:51;;;;;;;24.98;10.70;;;;;;;25.62;15.43;99744.44;4984627;28;20116;-63
2021/04/15 08:24:34;;;;;;;25.20;10.77;;;;;;;25.40;15.65;99726.69;4971523;28;20061;-60
2021/04/15 08:27:26;;;;;;;20.25;10.35;;;;;;;25.11;16.18;99702.47;4980513;28;20040;-58
2021/04/15 08:30:07;;;;;;;28.77;11.52;;;;;;;24.94;16.25;99708.47;4995877;28;20047;-61
2021/04/15 08:32:47;;;;;;;26.33;10.98;;;;;;;24.90;16.17;99748.31;4972685;28;20059;-60
2021/04/15 08:35:54;;;;;;;30.98;11.43;;;;;;;24.62;16.56;99743.22;4972341;28;20573;-61
2021/04/15 08:38:33;;;;;;;;;;;;;;;24.77;16.66;99741.03;4977695;28;20046;-61
2021/04/15 08:41:08;;;;;;;34.80;12.43;;;;;;;23.53;17.74;99752.72;4981206;28;20452;-60
2021/04/15 08:44:14;;;;;;;25.10;11.13;;;;;;;23.65;17.90;99799.41;4978967;28;20043;-60
2021/04/15 08:46:58;;;;;;;28.13;12.07;;;;;;;23.71;17.70;99764.91;4972219;28;20502;-61
2021/04/15 08:49:43;;;;;;;27.25;11.25;;;;;;;23.86;17.94;99789.28;4975803;28;20420;-61
2021/04/15 08:52:29;;;;;;;18.45;10.70;;;;;;;23.39;18.28;99779.22;4991201;28;20136;-62
2021/04/15 08:55:18;;;;;;;26.50;11.30;;;;;;;23.33;18.65;99783.63;4990957;28;20108;-61
2021/04/15 08:58:21;;;;;;;27.63;11.32;;;;;;;23.25;18.68;99789.28;4991380;28;20070;-62
2021/04/15 09:01:10;;;;;;;27.48;11.40;;;;;;;23.31;18.89;99783.00;4990087;28;20034;-61
2021/04/15 09:03:39;;;;;;;26.17;12.07;;;;;;;22.94;19.21;99777.88;4965822;28;20062;-62
2021/04/15 09:06:10;;;;;;;28.83;11.40;;;;;;;22.86;19.63;99783.53;4982396;28;20528;-62
2021/04/15 09:09:13;;;;;;;25.17;11.15;;;;;;;23.12;19.31;99779.16;4971970;28;20049;-61
2021/04/15 09:11:56;;;;;;;28.55;11.10;;;;;;;23.02;19.16;99740.50;4971766;28;20046;-61
2021/04/15 09:14:43;;;;;;;32.38;12.10;;;;;;;23.46;19.10;99751.91;4970487;28;20062;-62
2021/04/15 09:17:40;;;;;;;30.13;12.02;;;;;;;23.61;19.06;99757.16;4983061;28;20077;-61
2021/04/15 09:20:20;;;;;;;28.98;12.48;;;;;;;23.52;19.61;99761.97;4986564;28;20039;-62
2021/04/15 09:23:00;;;;;;;29.67;13.90;;;;;;;23.44;20.09;99743.91;4971625;28;20039;-61
2021/04/15 09:25:43;;;;;;;31.75;13.05;;;;;;;23.39;20.47;99745.59;4971554;28;20035;-61
2021/04/15 09:28:40;;;;;;;28.70;13.65;;;;;;;23.70;20.00;99749.56;4982077;28;20615;-62
2021/04/15 09:31:17;;;;;;;31.33;13.10;;;;;;;23.89;19.83;99762.38;4971606;28;20193;-62
2021/04/15 09:33:42;;;;;;;31.70;13.57;;;;;;;24.12;19.40;99757.50;4971096;28;20093;-63
2021/04/15 09:36:28;;;;;;;29.85;12.75;;;;;;;24.19;19.29;99756.44;4970048;28;20062;-62
2021/04/15 09:39:11;;;;;;;31.40;14.55;;;;;;;24.05;19.92;99717.34;4984449;28;20039;-62
2021/04/15 09:41:43;;;;;;;26.38;12.98;;;;;;;24.25;19.92;99759.34;4970864;28;20039;-62
2021/04/15 09:44:29;;;;;;;27.33;13.85;;;;;;;24.19;20.36;99734.56;4985765;28;20042;-62
2021/04/15 09:47:30;;;;;;;27.75;12.73;;;;;;;24.45;20.17;99743.69;4990623;28;20251;-63
2021/04/15 09:50:07;;;;;;;29.73;13.48;;;;;;;24.66;20.12;99747.19;4990338;28;20478;-61
2021/04/15 09:52:45;;;;;;;24.77;12.50;;;;;;;24.70;20.26;99755.78;4990725;28;20109;-64
2021/04/15 09:55:29;;;;;;;30.73;12.95;;;;;;;24.68;20.21;99744.22;4986039;28;20066;-62
2021/04/15 09:58:21;;;;;;;30.85;13.95;;;;;;;24.84;20.39;99748.34;4970746;28;20975;-60
2021/04/15 10:00:49;;;;;;;28.13;13.45;;;;;;;24.86;20.11;99741.59;4970808;28;20103;-61
2021/04/15 10:03:34;;;;;;;30.40;13.85;;;;;;;24.90;20.17;99744.75;4970037;28;20093;-61
2021/04/15 10:06:25;;;;;;;26.33;12.88;;;;;;;24.60;20.30;99690.59;4966003;28;20045;-61
2021/04/15 10:08:59;;;;;;;30.50;13.02;;;;;;;24.83;20.54;99739.31;4974939;28;20414;-61
2021/04/15 10:11:34;;;;;;;34.20;13.43;;;;;;;24.70;20.92;99739.34;4974812;28;20323;-61
2021/04/15 10:14:17;;;;;;;29.95;13.07;;;;;;;24.69;21.10;99744.00;4974478;28;20521;-61
2021/04/15 10:16:50;;;;;;;31.00;13.23;;;;;;;24.52;21.48;99749.97;4985116;28;20125;-61
2021/04/15 10:19:40;;;;;;;30.52;13.40;;;;;;;24.41;21.35;99747.06;4974719;28;20161;-62
2021/04/15 10:22:27;;;;;;;25.75;12.75;;;;;;;24.37;22.09;99753.00;4975028;28;20054;-59
2021/04/15 10:24:59;;;;;;;32.67;12.93;;;;;;;24.30;21.83;99748.59;4974460;28;20105;-63
2021/04/15 10:27:45;;;;;;;27.90;13.00;;;;;;;24.51;21.95;99747.47;4986273;28;20034;-63
2021/04/15 10:30:20;;;;;;;29.13;14.00;;;;;;;24.41;21.78;99747.94;4974690;28;20046;-62
2021/04/15 10:33:02;;;;;;;35.92;14.45;;;;;;;24.51;22.04;99753.78;4985792;28;20051;-64
2021/04/15 10:35:48;;;;;;;26.55;13.73;;;;;;;24.50;22.08;99752.09;4994272;28;20078;-63
2021/04/15 10:38:53;;;;;;;29.98;13.60;;;;;;;24.39;22.76;99749.19;4994344;28;20108;-65
2021/04/15 10:41:49;;;;;;;32.97;13.60;;;;;;;24.33;22.71;99761.84;4994073;28;20053;-62
2021/04/15 10:44:40;;;;;;;33.85;12.95;;;;;;;24.28;23.22;99758.91;4988524;28;20054;-62
2021/04/15 10:47:28;;;;;;;25.50;13.45;;;;;;;24.22;23.36;99750.53;4974619;28;20043;-62
2021/04/15 10:50:36;;;;;;;28.73;13.15;;;;;;;24.35;23.08;99757.84;4974427;28;20045;-61
2021/04/15 10:53:14;;;;;;;28.27;13.15;;;;;;;24.56;23.22;99747.66;4974628;28;20198;-62
2021/04/15 10:55:47;;;;;;;33.75;12.93;;;;;;;24.69;22.87;99754.94;4978558;28;20034;-61
2021/04/15 10:58:34;;;;;;;23.70;12.95;;;;;;;24.71;23.23;99744.63;4993012;28;20038;-63
2021/04/15 11:01:21;;;;;;;32.33;13.20;;;;;;;24.61;23.11;99747.00;4993950;28;20042;-61
2021/04/15 11:03:47;;;;;;;30.15;13.55;;;;;;;24.59;23.35;99733.53;4992607;28;20038;-64
2021/04/15 11:06:31;;;;;;;25.33;12.35;;;;;;;24.84;22.68;99740.13;4984785;28;20081;-61
2021/04/15 11:09:13;;;;;;;35.40;13.43;;;;;;;24.74;22.73;99733.22;4974227;28;20035;-63
2021/04/15 11:11:53;;;;;;;29.05;11.77;;;;;;;24.82;22.54;99736.78;4973851;28;20045;-63
2021/04/15 11:14:19;;;;;;;25.15;11.63;;;;;;;24.65;22.67;99732.63;4974560;28;20094;-62
2021/04/15 11:16:49;;;;;;;30.02;12.93;;;;;;;24.60;22.55;99716.03;4983754;28;20052;-62
2021/04/15 11:19:16;;;;;;;33.33;12.60;;;;;;;24.34;22.62;99667.75;4973961;28;20074;-63
2021/04/15 11:21:43;;;;;;;34.20;12.70;;;;;;;24.64;22.49;99724.66;4980772;28;20121;-64
2021/04/15 11:24:32;;;;;;;31.33;11.88;;;;;;;24.77;22.25;99724.59;4973621;28;20039;-62
2021/04/15 11:27:06;;;;;;;27.30;12.50;;;;;;;24.77;22.03;99723.78;4973469;28;20035;-62
2021/04/15 11:29:50;;;;;;;23.02;12.40;;;;;;;24.77;22.00;99718.31;4973305;28;20034;-62
2021/04/15 11:32:24;;;;;;;25.90;13.75;;;;;;;24.55;21.81;99713.13;4976845;28;20089;-58
2021/04/15 11:35:05;;;;;;;32.10;13.93;;;;;;;24.57;21.39;99707.41;4980531;28;20063;-61
2021/04/15 11:37:32;;;;;;;29.38;14.55;;;;;;;24.52;21.40;99703.44;4973683;28;20133;-63
2021/04/15 11:40:20;;;;;;;36.13;12.88;;;;;;;24.27;21.17;99659.59;4973349;28;20035;-64
2021/04/15 11:42:46;;;;;;;31.63;13.43;;;;;;;24.52;20.77;99702.63;4974075;28;20415;-65
2021/04/15 11:45:30;;;;;;;35.55;15.18;;;;;;;24.66;19.30;99709.69;4984006;28;20034;-61
2021/04/15 11:48:20;;;;;;;23.00;11.40;;;;;;;24.72;18.92;99705.22;4972872;28;20050;-63
2021/04/15 11:50:48;;;;;;;22.85;10.07;;;;;;;24.54;18.41;99686.81;4991574;28;20035;-63
2021/04/15 11:53:23;;;;;;;31.77;11.48;;;;;;;24.63;18.53;99701.91;4987412;28;20047;-63
2021/04/15 11:55:48;;;;;;;28.27;13.53;;;;;;;24.54;19.88;99699.66;4972905;28;20034;-62
2021/04/15 11:58:30;;;;;;;29.48;14.23;;;;;;;24.47;21.15;99697.81;4972880;28;20587;-62
2021/04/15 12:01:00;;;;;;;26.45;12.98;;;;;;;24.45;20.54;99699.06;4973042;28;20069;-62
2021/04/15 12:03:27;;;;;;;26.73;9.70;;;;;;;24.64;18.28;99697.28;4972596;28;20062;-58
2021/04/15 12:05:58;;;;;;;18.30;9.95;;;;;;;24.11;17.53;99707.41;4981379;28;20038;-63